sensor_id;sensor_type;location;lat;lon;timestamp;pressure;altitude;pressure_sealevel;temperature;humidity
18850;BME280;4989;48.772;9.154;2022-08-05T00:02:18;97539.56;;;29.28;58.46
18850;BME280;4989;48.772;9.154;2022-08-05T00:07:22;97541.78;;;29.14;61.59
18850;BME280;4989;48.772;9.154;2022-08-05T00:12:44;97546.22;;;28.86;53.35
18850;BME280;4989;48.772;9.154;2022-08-05T00:17:58;97552.22;;;28.83;51.80
18850;BME280;4989;48.772;9.154;2022-08-05T00:23:03;97549.59;;;28.77;52.15
18850;BME280;4989;48.772;9.154;2022-08-05T00:28:15;97548.84;;;28.76;53.75
18850;BME280;4989;48.772;9.154;2022-08-05T00:33:31;97544.56;;;28.75;58.92
18850;BME280;4989;48.772;9.154;2022-08-05T00:38:53;97549.34;;;28.52;53.33
18850;BME280;4989;48.772;9.154;2022-08-05T00:44:00;97562.59;;;28.51;53.48
18850;BME280;4989;48.772;9.154;2022-08-05T00:49:03;97569.13;;;28.54;53.69
18850;BME280;4989;48.772;9.154;2022-08-05T00:54:10;97595.06;;;28.62;63.76
18850;BME280;4989;48.772;9.154;2022-08-05T00:59:12;97604.38;;;28.57;60.64
18850;BME280;4989;48.772;9.154;2022-08-05T01:04:15;97603.91;;;28.38;55.58
18850;BME280;4989;48.772;9.154;2022-08-05T01:09:27;97598.47;;;27.96;61.05
18850;BME280;4989;48.772;9.154;2022-08-05T01:14:47;97610.47;;;27.75;64.88
18850;BME280;4989;48.772;9.154;2022-08-05T01:31:03;97629.09;;;27.52;63.57
18850;BME280;4989;48.772;9.154;2022-08-05T01:36:14;97640.47;;;27.54;59.88
18850;BME280;4989;48.772;9.154;2022-08-05T01:41:22;97649.69;;;27.91;55.74
18850;BME280;4989;48.772;9.154;2022-08-05T01:46:27;97664.88;;;28.03;56.70
18850;BME280;4989;48.772;9.154;2022-08-05T01:51:48;97668.19;;;28.01;57.06
18850;BME280;4989;48.772;9.154;2022-08-05T01:56:53;97676.44;;;28.07;59.37
18850;BME280;4989;48.772;9.154;2022-08-05T02:02:20;97673.88;;;28.17;57.18
18850;BME280;4989;48.772;9.154;2022-08-05T02:07:31;97672.84;;;28.27;54.29
18850;BME280;4989;48.772;9.154;2022-08-05T02:18:01;97660.09;;;28.11;55.64
18850;BME280;4989;48.772;9.154;2022-08-05T02:23:29;97671.34;;;28.26;54.45
18850;BME280;4989;48.772;9.154;2022-08-05T02:28:37;97674.53;;;28.30;54.88
18850;BME280;4989;48.772;9.154;2022-08-05T02:33:54;97671.34;;;28.26;55.10
18850;BME280;4989;48.772;9.154;2022-08-05T02:39:02;97675.78;;;28.22;54.65
18850;BME280;4989;48.772;9.154;2022-08-05T02:44:10;97679.34;;;27.94;57.80
18850;BME280;4989;48.772;9.154;2022-08-05T02:49:15;97682.09;;;28.15;57.80
18850;BME280;4989;48.772;9.154;2022-08-05T02:54:20;97687.31;;;28.18;55.89
18850;BME280;4989;48.772;9.154;2022-08-05T02:59:40;97679.81;;;28.13;55.29
18850;BME280;4989;48.772;9.154;2022-08-05T03:04:54;97684.22;;;28.01;57.05
18850;BME280;4989;48.772;9.154;2022-08-05T03:09:58;97685.72;;;28.02;55.57
18850;BME280;4989;48.772;9.154;2022-08-05T03:15:05;97711.78;;;27.97;55.62
18850;BME280;4989;48.772;9.154;2022-08-05T03:20:10;97712.00;;;27.78;55.98
18850;BME280;4989;48.772;9.154;2022-08-05T03:25:15;97709.13;;;27.49;56.53
18850;BME280;4989;48.772;9.154;2022-08-05T03:30:39;97718.16;;;27.21;57.51
18850;BME280;4989;48.772;9.154;2022-08-05T03:35:46;97718.97;;;27.29;57.79
18850;BME280;4989;48.772;9.154;2022-08-05T03:40:51;97707.41;;;27.46;58.69
18850;BME280;4989;48.772;9.154;2022-08-05T03:45:58;97713.41;;;27.71;58.95
18850;BME280;4989;48.772;9.154;2022-08-05T03:51:19;97703.38;;;27.76;57.76
18850;BME280;4989;48.772;9.154;2022-08-05T03:56:46;97681.06;;;27.55;57.55
18850;BME280;4989;48.772;9.154;2022-08-05T04:01:52;97687.25;;;27.19;58.93
18850;BME280;4989;48.772;9.154;2022-08-05T04:07:01;97688.22;;;27.43;59.10
18850;BME280;4989;48.772;9.154;2022-08-05T04:12:05;97705.19;;;27.45;58.63
18850;BME280;4989;48.772;9.154;2022-08-05T04:17:26;97701.56;;;27.36;59.33
18850;BME280;4989;48.772;9.154;2022-08-05T04:22:49;97707.47;;;27.33;59.00
18850;BME280;4989;48.772;9.154;2022-08-05T04:27:51;97732.09;;;27.08;59.33
18850;BME280;4989;48.772;9.154;2022-08-05T04:33:00;97769.72;;;26.80;60.71
18850;BME280;4989;48.772;9.154;2022-08-05T04:38:02;97791.81;;;27.18;62.93
18850;BME280;4989;48.772;9.154;2022-08-05T04:43:08;97808.28;;;27.43;59.69
18850;BME280;4989;48.772;9.154;2022-08-05T04:48:17;97821.53;;;27.15;59.54
18850;BME280;4989;48.772;9.154;2022-08-05T04:53:29;97838.41;;;26.97;60.33
18850;BME280;4989;48.772;9.154;2022-08-05T04:58:36;97830.00;;;27.23;61.09
18850;BME280;4989;48.772;9.154;2022-08-05T05:03:38;97880.56;;;27.06;61.49
18850;BME280;4989;48.772;9.154;2022-08-05T05:08:43;97906.56;;;27.28;62.33
18850;BME280;4989;48.772;9.154;2022-08-05T05:13:51;97916.75;;;27.38;58.83
18850;BME280;4989;48.772;9.154;2022-08-05T05:18:56;97912.09;;;27.01;60.88
18850;BME280;4989;48.772;9.154;2022-08-05T05:24:18;97922.66;;;27.35;60.34
18850;BME280;4989;48.772;9.154;2022-08-05T05:29:23;97925.28;;;27.67;60.21
18850;BME280;4989;48.772;9.154;2022-08-05T05:34:45;97926.59;;;27.79;59.13
18850;BME280;4989;48.772;9.154;2022-08-05T05:39:47;97932.69;;;27.91;58.49
18850;BME280;4989;48.772;9.154;2022-08-05T05:44:50;97938.34;;;27.99;59.90
18850;BME280;4989;48.772;9.154;2022-08-05T05:50:00;97945.84;;;28.04;59.23
18850;BME280;4989;48.772;9.154;2022-08-05T05:55:10;97968.84;;;28.10;59.16
18850;BME280;4989;48.772;9.154;2022-08-05T06:00:17;97967.88;;;28.07;59.34
18850;BME280;4989;48.772;9.154;2022-08-05T06:05:20;97969.72;;;28.05;59.86
18850;BME280;4989;48.772;9.154;2022-08-05T06:10:26;97981.72;;;28.13;58.92
18850;BME280;4989;48.772;9.154;2022-08-05T06:15:37;97979.16;;;28.15;58.97
18850;BME280;4989;48.772;9.154;2022-08-05T06:21:00;97957.75;;;28.18;59.12
18850;BME280;4989;48.772;9.154;2022-08-05T06:26:02;97956.84;;;28.57;57.92
18850;BME280;4989;48.772;9.154;2022-08-05T06:31:25;97958.81;;;28.70;57.51
18850;BME280;4989;48.772;9.154;2022-08-05T06:36:33;97945.19;;;28.95;56.12
18850;BME280;4989;48.772;9.154;2022-08-05T06:41:59;97959.75;;;28.93;56.84
18850;BME280;4989;48.772;9.154;2022-08-05T06:47:05;97945.75;;;29.14;55.99
18850;BME280;4989;48.772;9.154;2022-08-05T06:52:22;97951.19;;;29.56;54.87
18850;BME280;4989;48.772;9.154;2022-08-05T06:57:41;97955.28;;;29.55;54.53
18850;BME280;4989;48.772;9.154;2022-08-05T07:03:03;97965.31;;;29.43;55.22
18850;BME280;4989;48.772;9.154;2022-08-05T07:08:10;97976.03;;;29.24;55.24
18850;BME280;4989;48.772;9.154;2022-08-05T07:13:13;97984.63;;;29.26;55.22
18850;BME280;4989;48.772;9.154;2022-08-05T07:18:54;97989.59;;;29.77;53.60
18850;BME280;4989;48.772;9.154;2022-08-05T07:23:57;97991.41;;;30.10;52.82
18850;BME280;4989;48.772;9.154;2022-08-05T07:29:02;98004.16;;;30.19;52.54
18850;BME280;4989;48.772;9.154;2022-08-05T07:34:05;98001.50;;;30.13;52.22
18850;BME280;4989;48.772;9.154;2022-08-05T07:39:09;98002.03;;;30.64;51.71
18850;BME280;4989;48.772;9.154;2022-08-05T07:44:35;98001.66;;;30.75;50.68
18850;BME280;4989;48.772;9.154;2022-08-05T07:49:40;98005.81;;;30.89;51.35
18850;BME280;4989;48.772;9.154;2022-08-05T07:54:55;98003.56;;;31.11;50.50
18850;BME280;4989;48.772;9.154;2022-08-05T07:59:59;98008.75;;;31.53;47.31
18850;BME280;4989;48.772;9.154;2022-08-05T08:05:01;98000.91;;;31.43;49.32
18850;BME280;4989;48.772;9.154;2022-08-05T08:10:05;98016.16;;;31.96;47.79
18850;BME280;4989;48.772;9.154;2022-08-05T08:15:09;98011.25;;;31.89;47.85
18850;BME280;4989;48.772;9.154;2022-08-05T08:20:17;98010.94;;;31.77;48.36
18850;BME280;4989;48.772;9.154;2022-08-05T08:25:39;98013.31;;;32.36;46.22
18850;BME280;4989;48.772;9.154;2022-08-05T08:31:06;98006.16;;;32.76;44.91
18850;BME280;4989;48.772;9.154;2022-08-05T08:36:09;97998.97;;;32.57;46.17
18850;BME280;4989;48.772;9.154;2022-08-05T08:41:33;97992.59;;;32.57;45.85
18850;BME280;4989;48.772;9.154;2022-08-05T08:46:56;97980.25;;;33.37;44.05
18850;BME280;4989;48.772;9.154;2022-08-05T08:52:11;97972.56;;;33.38;40.70
18850;BME280;4989;48.772;9.154;2022-08-05T08:57:15;97965.41;;;33.37;40.63
18850;BME280;4989;48.772;9.154;2022-08-05T09:02:20;97959.78;;;34.43;40.45
18850;BME280;4989;48.772;9.154;2022-08-05T09:07:27;97963.72;;;34.30;42.71
18850;BME280;4989;48.772;9.154;2022-08-05T09:12:50;97945.47;;;35.53;39.25
18850;BME280;4989;48.772;9.154;2022-08-05T09:17:54;97944.28;;;35.76;39.87
18850;BME280;4989;48.772;9.154;2022-08-05T09:28:14;97925.66;;;35.53;40.04
18850;BME280;4989;48.772;9.154;2022-08-05T09:33:23;97928.81;;;35.77;38.57
18850;BME280;4989;48.772;9.154;2022-08-05T09:38:36;97927.28;;;36.36;34.51
18850;BME280;4989;48.772;9.154;2022-08-05T09:43:40;97906.91;;;37.67;32.63
18850;BME280;4989;48.772;9.154;2022-08-05T09:48:43;97912.31;;;36.86;37.44
18850;BME280;4989;48.772;9.154;2022-08-05T09:54:06;97919.84;;;36.72;34.08
18850;BME280;4989;48.772;9.154;2022-08-05T09:59:12;97912.13;;;38.39;35.03
18850;BME280;4989;48.772;9.154;2022-08-05T10:04:18;97909.56;;;39.15;32.46
18850;BME280;4989;48.772;9.154;2022-08-05T10:09:31;97909.41;;;39.25;30.25
18850;BME280;4989;48.772;9.154;2022-08-05T10:14:46;97903.03;;;39.76;32.90
18850;BME280;4989;48.772;9.154;2022-08-05T10:19:50;97896.66;;;40.03;31.28
18850;BME280;4989;48.772;9.154;2022-08-05T10:25:11;97894.44;;;40.82;30.84
18850;BME280;4989;48.772;9.154;2022-08-05T10:30:15;97893.03;;;41.70;28.84
18850;BME280;4989;48.772;9.154;2022-08-05T10:35:41;97882.66;;;41.33;31.39
18850;BME280;4989;48.772;9.154;2022-08-05T10:40:53;97885.06;;;41.98;27.27
18850;BME280;4989;48.772;9.154;2022-08-05T10:46:01;97886.50;;;42.15;29.48
18850;BME280;4989;48.772;9.154;2022-08-05T10:56:26;97868.28;;;42.38;27.19
18850;BME280;4989;48.772;9.154;2022-08-05T11:01:36;97872.81;;;43.29;25.96
18850;BME280;4989;48.772;9.154;2022-08-05T11:12:02;97873.44;;;42.10;30.55
18850;BME280;4989;48.772;9.154;2022-08-05T11:17:27;97880.44;;;41.16;31.55
18850;BME280;4989;48.772;9.154;2022-08-05T11:22:50;97876.50;;;38.73;35.19
18850;BME280;4989;48.772;9.154;2022-08-05T11:33:40;97896.19;;;42.71;27.75
18850;BME280;4989;48.772;9.154;2022-08-05T11:38:53;97878.09;;;37.49;36.46
18850;BME280;4989;48.772;9.154;2022-08-05T11:49:13;97883.25;;;36.98;35.09
18850;BME280;4989;48.772;9.154;2022-08-05T11:54:28;97876.03;;;38.77;31.93
18850;BME280;4989;48.772;9.154;2022-08-05T11:59:35;97882.09;;;37.34;31.86
18850;BME280;4989;48.772;9.154;2022-08-05T12:04:51;97871.81;;;36.74;33.06
18850;BME280;4989;48.772;9.154;2022-08-05T12:10:02;97865.03;;;36.27;37.98
18850;BME280;4989;48.772;9.154;2022-08-05T12:15:22;97864.22;;;35.25;39.90
18850;BME280;4989;48.772;9.154;2022-08-05T12:20:39;97856.75;;;34.81;40.86
18850;BME280;4989;48.772;9.154;2022-08-05T12:25:52;97853.34;;;34.36;42.33
18850;BME280;4989;48.772;9.154;2022-08-05T12:30:58;97855.84;;;33.95;43.07
18850;BME280;4989;48.772;9.154;2022-08-05T12:36:05;97846.31;;;33.19;43.75
18850;BME280;4989;48.772;9.154;2022-08-05T12:41:11;97843.91;;;32.80;45.09
18850;BME280;4989;48.772;9.154;2022-08-05T12:46:22;97858.31;;;32.84;45.61
18850;BME280;4989;48.772;9.154;2022-08-05T12:51:30;97852.00;;;32.59;45.44
18850;BME280;4989;48.772;9.154;2022-08-05T13:07:14;97840.22;;;39.60;32.90
18850;BME280;4989;48.772;9.154;2022-08-05T13:12:28;97845.06;;;39.57;34.65
18850;BME280;4989;48.772;9.154;2022-08-05T13:17:31;97837.88;;;36.86;38.42
18850;BME280;4989;48.772;9.154;2022-08-05T13:22:48;97826.59;;;34.37;42.36
18850;BME280;4989;48.772;9.154;2022-08-05T13:27:52;97834.69;;;34.04;38.84
18850;BME280;4989;48.772;9.154;2022-08-05T13:32:55;97824.84;;;33.23;43.92
18850;BME280;4989;48.772;9.154;2022-08-05T13:38:04;97824.91;;;33.50;40.02
18850;BME280;4989;48.772;9.154;2022-08-05T13:43:07;97826.72;;;35.94;35.29
18850;BME280;4989;48.772;9.154;2022-08-05T13:48:13;97812.44;;;34.93;40.73
18850;BME280;4989;48.772;9.154;2022-08-05T13:53:36;97803.97;;;33.81;41.82
18850;BME280;4989;48.772;9.154;2022-08-05T13:58:49;97798.06;;;33.32;44.44
18850;BME280;4989;48.772;9.154;2022-08-05T14:03:54;97801.09;;;32.39;44.60
18850;BME280;4989;48.772;9.154;2022-08-05T14:09:16;97791.22;;;34.16;44.00
18850;BME280;4989;48.772;9.154;2022-08-05T14:14:22;97797.16;;;35.76;40.45
18850;BME280;4989;48.772;9.154;2022-08-05T14:19:30;97796.75;;;33.16;44.48
18850;BME280;4989;48.772;9.154;2022-08-05T14:24:53;97796.56;;;32.19;46.88
18850;BME280;4989;48.772;9.154;2022-08-05T14:29:56;97793.16;;;30.97;49.33
18850;BME280;4989;48.772;9.154;2022-08-05T14:35:00;97807.41;;;30.76;50.60
18850;BME280;4989;48.772;9.154;2022-08-05T14:40:03;97801.84;;;30.53;50.39
18850;BME280;4989;48.772;9.154;2022-08-05T14:45:06;97828.44;;;30.22;51.78
18850;BME280;4989;48.772;9.154;2022-08-05T14:50:10;97806.72;;;29.99;53.45
18850;BME280;4989;48.772;9.154;2022-08-05T14:55:19;97812.31;;;29.99;52.63
18850;BME280;4989;48.772;9.154;2022-08-05T15:00:23;97809.13;;;30.10;52.27
18850;BME280;4989;48.772;9.154;2022-08-05T15:05:31;97810.44;;;29.94;52.60
18850;BME280;4989;48.772;9.154;2022-08-05T15:10:53;97873.81;;;29.97;52.04
18850;BME280;4989;48.772;9.154;2022-08-05T15:15:56;97927.56;;;30.40;52.85
18850;BME280;4989;48.772;9.154;2022-08-05T15:20:58;97868.78;;;30.19;53.37
18850;BME280;4989;48.772;9.154;2022-08-05T15:26:09;97883.78;;;30.21;53.37
18850;BME280;4989;48.772;9.154;2022-08-05T15:31:12;97892.28;;;31.38;61.01
18850;BME280;4989;48.772;9.154;2022-08-05T15:36:15;97880.97;;;31.54;58.79
18850;BME280;4989;48.772;9.154;2022-08-05T15:41:27;97886.66;;;31.38;54.30
18850;BME280;4989;48.772;9.154;2022-08-05T15:46:49;97885.19;;;31.22;54.33
18850;BME280;4989;48.772;9.154;2022-08-05T15:51:53;97887.88;;;30.89;53.99
18850;BME280;4989;48.772;9.154;2022-08-05T15:57:16;97896.13;;;30.79;55.43
18850;BME280;4989;48.772;9.154;2022-08-05T16:02:19;97897.81;;;30.44;55.87
18850;BME280;4989;48.772;9.154;2022-08-05T16:07:27;97888.91;;;29.86;57.03
18850;BME280;4989;48.772;9.154;2022-08-05T16:12:30;97896.94;;;29.82;57.28
18850;BME280;4989;48.772;9.154;2022-08-05T16:17:33;97899.63;;;29.52;58.73
18850;BME280;4989;48.772;9.154;2022-08-05T16:22:36;97901.56;;;29.64;57.42
18850;BME280;4989;48.772;9.154;2022-08-05T16:27:39;97920.53;;;29.51;58.31
18850;BME280;4989;48.772;9.154;2022-08-05T16:33:01;97936.25;;;29.54;58.50
18850;BME280;4989;48.772;9.154;2022-08-05T16:38:04;97935.41;;;29.38;58.47
18850;BME280;4989;48.772;9.154;2022-08-05T16:43:28;97941.94;;;29.33;58.10
18850;BME280;4989;48.772;9.154;2022-08-05T16:48:31;97935.00;;;29.26;58.31
18850;BME280;4989;48.772;9.154;2022-08-05T16:53:41;97946.53;;;29.22;58.54
18850;BME280;4989;48.772;9.154;2022-08-05T16:59:06;97944.31;;;29.00;59.10
18850;BME280;4989;48.772;9.154;2022-08-05T17:04:10;97956.13;;;29.06;59.12
18850;BME280;4989;48.772;9.154;2022-08-05T17:09:16;97952.03;;;29.07;58.27
18850;BME280;4989;48.772;9.154;2022-08-05T17:14:19;97950.25;;;29.17;58.45
18850;BME280;4989;48.772;9.154;2022-08-05T17:19:38;97961.44;;;29.17;58.50
18850;BME280;4989;48.772;9.154;2022-08-05T17:24:42;97969.63;;;29.15;58.92
18850;BME280;4989;48.772;9.154;2022-08-05T17:29:59;97957.97;;;29.04;59.37
18850;BME280;4989;48.772;9.154;2022-08-05T17:35:04;97976.47;;;29.07;58.23
18850;BME280;4989;48.772;9.154;2022-08-05T17:40:11;97982.88;;;28.94;58.70
18850;BME280;4989;48.772;9.154;2022-08-05T17:45:14;97985.91;;;28.96;58.58
18850;BME280;4989;48.772;9.154;2022-08-05T17:50:24;97988.88;;;28.98;58.99
18850;BME280;4989;48.772;9.154;2022-08-05T17:55:32;98009.78;;;28.97;59.00
18850;BME280;4989;48.772;9.154;2022-08-05T18:00:43;98023.38;;;28.93;58.76
18850;BME280;4989;48.772;9.154;2022-08-05T18:05:51;98033.28;;;28.94;58.91
18850;BME280;4989;48.772;9.154;2022-08-05T18:10:55;98042.63;;;28.75;59.51
18850;BME280;4989;48.772;9.154;2022-08-05T18:15:58;98053.69;;;28.81;59.44
18850;BME280;4989;48.772;9.154;2022-08-05T18:21:00;98057.50;;;28.70;60.40
18850;BME280;4989;48.772;9.154;2022-08-05T18:26:04;98066.44;;;28.69;60.56
18850;BME280;4989;48.772;9.154;2022-08-05T18:31:09;98079.25;;;28.64;61.39
18850;BME280;4989;48.772;9.154;2022-08-05T18:36:12;98095.28;;;28.64;61.55
18850;BME280;4989;48.772;9.154;2022-08-05T18:41:16;98089.59;;;28.56;61.25
18850;BME280;4989;48.772;9.154;2022-08-05T18:46:39;98112.00;;;28.56;61.59
18850;BME280;4989;48.772;9.154;2022-08-05T18:51:44;98134.69;;;28.52;61.59
18850;BME280;4989;48.772;9.154;2022-08-05T18:57:10;98151.19;;;28.43;61.45
18850;BME280;4989;48.772;9.154;2022-08-05T19:02:17;98157.09;;;28.39;61.74
18850;BME280;4989;48.772;9.154;2022-08-05T19:07:39;98162.78;;;28.47;61.19
18850;BME280;4989;48.772;9.154;2022-08-05T19:12:47;98168.50;;;28.41;61.04
18850;BME280;4989;48.772;9.154;2022-08-05T19:17:49;98163.22;;;28.38;61.80
18850;BME280;4989;48.772;9.154;2022-08-05T19:23:11;98165.38;;;28.31;62.39
18850;BME280;4989;48.772;9.154;2022-08-05T19:28:40;98178.72;;;28.25;62.01
18850;BME280;4989;48.772;9.154;2022-08-05T19:33:45;98190.56;;;28.18;61.91
18850;BME280;4989;48.772;9.154;2022-08-05T19:38:58;98190.88;;;28.15;62.25
18850;BME280;4989;48.772;9.154;2022-08-05T19:44:03;98191.41;;;28.00;62.02
18850;BME280;4989;48.772;9.154;2022-08-05T19:49:15;98220.97;;;28.08;60.59
18850;BME280;4989;48.772;9.154;2022-08-05T19:54:19;98224.28;;;28.07;61.38
18850;BME280;4989;48.772;9.154;2022-08-05T19:59:32;98229.22;;;27.88;62.05
18850;BME280;4989;48.772;9.154;2022-08-05T20:04:55;98231.38;;;27.81;61.80
18850;BME280;4989;48.772;9.154;2022-08-05T20:10:01;98251.31;;;27.72;61.44
18850;BME280;4989;48.772;9.154;2022-08-05T20:15:13;98262.66;;;27.61;63.07
18850;BME280;4989;48.772;9.154;2022-08-05T20:20:37;98250.22;;;27.75;63.14
18850;BME280;4989;48.772;9.154;2022-08-05T20:25:40;98259.63;;;27.59;63.75
18850;BME280;4989;48.772;9.154;2022-08-05T20:30:42;98262.47;;;27.40;64.28
18850;BME280;4989;48.772;9.154;2022-08-05T20:35:46;98273.41;;;27.19;65.57
18850;BME280;4989;48.772;9.154;2022-08-05T20:40:48;98280.16;;;27.05;66.47
18850;BME280;4989;48.772;9.154;2022-08-05T20:45:51;98297.28;;;26.95;66.18
18850;BME280;4989;48.772;9.154;2022-08-05T20:50:57;98297.06;;;26.93;66.58
18850;BME280;4989;48.772;9.154;2022-08-05T20:56:09;98298.81;;;26.97;66.59
18850;BME280;4989;48.772;9.154;2022-08-05T21:01:11;98315.63;;;26.91;67.04
18850;BME280;4989;48.772;9.154;2022-08-05T21:06:14;98322.13;;;26.99;66.20
18850;BME280;4989;48.772;9.154;2022-08-05T21:11:29;98326.56;;;27.08;65.95
18850;BME280;4989;48.772;9.154;2022-08-05T21:16:52;98336.28;;;27.01;66.14
18850;BME280;4989;48.772;9.154;2022-08-05T21:21:54;98355.59;;;26.99;66.16
18850;BME280;4989;48.772;9.154;2022-08-05T21:26:57;98370.81;;;26.98;65.64
18850;BME280;4989;48.772;9.154;2022-08-05T21:32:03;98385.78;;;26.76;66.02
18850;BME280;4989;48.772;9.154;2022-08-05T21:37:06;98385.91;;;26.29;69.07
18850;BME280;4989;48.772;9.154;2022-08-05T21:42:10;98376.88;;;26.78;66.88
18850;BME280;4989;48.772;9.154;2022-08-05T21:47:35;98369.75;;;26.82;65.88
18850;BME280;4989;48.772;9.154;2022-08-05T21:52:58;98381.41;;;26.81;66.08
18850;BME280;4989;48.772;9.154;2022-08-05T21:58:09;98386.47;;;26.82;65.52
18850;BME280;4989;48.772;9.154;2022-08-05T22:03:12;98382.63;;;26.85;65.83
18850;BME280;4989;48.772;9.154;2022-08-05T22:08:17;98378.91;;;26.77;65.69
18850;BME280;4989;48.772;9.154;2022-08-05T22:13:27;98404.41;;;26.87;65.05
18850;BME280;4989;48.772;9.154;2022-08-05T22:18:50;98412.19;;;27.00;63.26
18850;BME280;4989;48.772;9.154;2022-08-05T22:23:52;98422.28;;;27.03;63.20
18850;BME280;4989;48.772;9.154;2022-08-05T22:29:35;98435.84;;;26.93;62.05
18850;BME280;4989;48.772;9.154;2022-08-05T22:34:38;98436.06;;;26.95;60.09
18850;BME280;4989;48.772;9.154;2022-08-05T22:39:41;98442.72;;;26.86;59.24
18850;BME280;4989;48.772;9.154;2022-08-05T22:44:44;98455.44;;;26.87;61.51
18850;BME280;4989;48.772;9.154;2022-08-05T22:50:00;98461.38;;;26.72;61.06
18850;BME280;4989;48.772;9.154;2022-08-05T22:55:24;98470.56;;;26.67;60.19
18850;BME280;4989;48.772;9.154;2022-08-05T23:00:27;98480.00;;;26.59;58.60
18850;BME280;4989;48.772;9.154;2022-08-05T23:05:32;98492.47;;;26.52;58.57
18850;BME280;4989;48.772;9.154;2022-08-05T23:10:37;98493.72;;;26.57;57.74
18850;BME280;4989;48.772;9.154;2022-08-05T23:15:40;98498.09;;;26.41;58.21
18850;BME280;4989;48.772;9.154;2022-08-05T23:20:44;98505.28;;;26.31;57.13
18850;BME280;4989;48.772;9.154;2022-08-05T23:25:46;98518.34;;;26.47;57.79
18850;BME280;4989;48.772;9.154;2022-08-05T23:30:57;98514.03;;;26.52;56.43
18850;BME280;4989;48.772;9.154;2022-08-05T23:36:14;98520.13;;;26.44;56.42
18850;BME280;4989;48.772;9.154;2022-08-05T23:41:17;98530.53;;;26.44;56.28
18850;BME280;4989;48.772;9.154;2022-08-05T23:46:20;98521.66;;;26.45;56.36
18850;BME280;4989;48.772;9.154;2022-08-05T23:51:23;98524.19;;;26.43;55.35
18850;BME280;4989;48.772;9.154;2022-08-05T23:56:25;98532.06;;;26.45;56.21
